Terminal Aerodrome Forecast
Issued by NWS

Home | Current Version | Previous Version | Text Only | Print | Product List | Glossary On
Versions: 1 2 3 4 5 6 7 8 9 10 11 12 13 14 15 16 17 18
000
FTUS42 TJSJ 051137
TAFJSJ
TAF
TJSJ 051137Z 0512/0612 10010KT P6SM VCSH FEW025 SCT050
     FM051630 08012KT P6SM VCTS SCT030CB BKN050
     FM052330 VRB05KT P6SM SCT025=

USA.gov is the U.S. government's official web portal to all federal, state and local government web resources and services.